Amherst, Nebraska
Current Conditions -  °F | °C
As of 10:35 PM on Saturday 20 Dec 2014 (Local Time) from KEAR Reporting Station
Clear Clear  
Wind Chill: 26°   Ceiling: Unl
Heat Index: 32°   Visibility: 10mi
Dew Point: 28°   Wind: 7mph
Humidity: 87%   Direction: 200°SSW
Pressure: 29.93"   Gusts: NA
Location:  40.77°N, 99.27°W
Report Text: KEAR 210435Z 20006KT 10SM CLR 00/M02 A2993 RMK AO1
Loading
Personal Weather Stations






























Interactive Weather Map New forecast layout! Learn more

10-Day Weather Forecast

Advertisements
Track Severe Weather on mobile